»·PEaware :: N3852L KBFL-KCMA

N3852L :: KBFL-KCMA

FLIGHT INFORMATION

Flight Status: Arrived
Operator: Privately registered:
United States
More flights under this callsign
Pilot: Chris M. (19776)
Aircraft: CESSNA 172 SKYHAWK
(C172)
More flights by this aircraft type
Origin: KBFL Meadows
United States
Destination: KCMA Camarillo
United States
More flights between these airports :: More routes between these airports
Route: GMN SESPE
File this flight plan on PilotEdge
Remarks: Alphabet Challenge
Altitude:
(Current/Filed)
7,500ft
Speed:
(Current/Filed)
110kts
Departed: 10-Apr-20 07:47 AM
Arrived: 10-Apr-20 08:43 AM
Distance/Time
Traveled:
73nm/0:56
Distance/Time
To Go:
Arrived

Flight Plot

Page will automatically refresh every two minutes.

Flight plan parsing failed; only flown route is shown


Map Options




Map Legend


Flown Route
Filed Route
Departure Airport
Arrival Airport
Navaid (VOR, NDB)
Fix

Horizontal Profiles

Position Reports

Time Latitude Longitude Heading Altitude Ground
Speed
10-Apr-20 07:29 35.435702 -119.052043 180 501ft 0kts
10-Apr-20 07:30 35.435702 -119.052043 180 501ft 0kts
10-Apr-20 07:31 35.435702 -119.052043 180 501ft 0kts
10-Apr-20 07:32 35.435702 -119.052044 179 501ft 0kts
10-Apr-20 07:33 35.435702 -119.052044 179 501ft 0kts
10-Apr-20 07:34 35.435702 -119.052044 179 501ft 0kts
10-Apr-20 07:35 35.435702 -119.052043 179 501ft 0kts
10-Apr-20 07:36 35.435702 -119.052044 179 501ft 0kts
10-Apr-20 07:37 35.435458 -119.052409 260 500ft 10kts
10-Apr-20 07:38 35.434889 -119.054152 227 493ft 6kts
10-Apr-20 07:39 35.434811 -119.054253 224 493ft 0kts
10-Apr-20 07:40 35.434811 -119.054253 224 493ft 0kts
10-Apr-20 07:41 35.433281 -119.053284 135 492ft 19kts
10-Apr-20 07:42 35.429719 -119.048982 134 488ft 21kts
10-Apr-20 07:43 35.426558 -119.045166 135 482ft 21kts
10-Apr-20 07:44 35.425341 -119.044302 287 478ft 0kts
10-Apr-20 07:45 35.425681 -119.044738 252 478ft 0kts
10-Apr-20 07:46 35.428883 -119.050388 312 556ft 78kts
10-Apr-20 07:47 35.438610 -119.065921 259 1424ft 77kts
10-Apr-20 07:48 35.424348 -119.069415 156 2261ft 75kts
10-Apr-20 07:49 35.411975 -119.065608 161 2902ft 76kts
10-Apr-20 07:50 35.398350 -119.061505 161 3585ft 78kts
10-Apr-20 07:51 35.382628 -119.057345 163 4281ft 84kts
10-Apr-20 07:52 35.366117 -119.052498 159 4976ft 85kts
10-Apr-20 07:53 35.349039 -119.047531 162 5660ft 87kts
10-Apr-20 07:54 35.331113 -119.042331 159 6353ft 89kts
10-Apr-20 07:55 35.312666 -119.036986 159 7009ft 92kts
10-Apr-20 07:56 35.293684 -119.031552 158 7500ft 107kts
10-Apr-20 07:57 35.270297 -119.023162 159 7585ft 125kts
10-Apr-20 07:58 35.245464 -119.014235 158 7540ft 128kts
10-Apr-20 07:59 35.218096 -119.005679 160 7534ft 125kts
10-Apr-20 08:00 35.191499 -118.997577 161 7540ft 127kts
10-Apr-20 08:01 35.166683 -118.990051 161 7544ft 128kts
10-Apr-20 08:02 35.141110 -118.982342 161 7546ft 129kts
10-Apr-20 08:03 35.115442 -118.974698 161 7548ft 129kts
10-Apr-20 08:05 35.090350 -118.967298 161 7550ft 129kts
10-Apr-20 08:06 35.064713 -118.959350 160 7551ft 129kts
10-Apr-20 08:07 35.038190 -118.950999 160 7496ft 131kts
10-Apr-20 08:08 35.012520 -118.942957 160 7496ft 129kts
10-Apr-20 08:09 34.986337 -118.934853 160 7496ft 129kts
10-Apr-20 08:10 34.958448 -118.926427 160 7498ft 128kts
10-Apr-20 08:11 34.931483 -118.918164 160 7498ft 127kts
10-Apr-20 08:12 34.905952 -118.908236 156 7499ft 125kts
10-Apr-20 08:13 34.885197 -118.899346 155 7498ft 124kts
10-Apr-20 08:14 34.862581 -118.889403 155 7497ft 124kts
10-Apr-20 08:15 34.839050 -118.878941 155 7496ft 124kts
10-Apr-20 08:16 34.815856 -118.868584 155 7496ft 124kts
10-Apr-20 08:17 34.791388 -118.863978 177 7488ft 128kts
10-Apr-20 08:18 34.764793 -118.865086 177 7487ft 128kts
10-Apr-20 08:19 34.738475 -118.866250 177 7486ft 128kts
10-Apr-20 08:20 34.711978 -118.867444 177 7484ft 129kts
10-Apr-20 08:21 34.689227 -118.868473 177 7483ft 130kts
10-Apr-20 08:22 34.666522 -118.869398 176 7482ft 130kts
10-Apr-20 08:23 34.641241 -118.869936 176 7481ft 131kts
10-Apr-20 08:23 34.616457 -118.870803 177 7479ft 132kts
10-Apr-20 08:25 34.585021 -118.872181 177 7473ft 132kts
10-Apr-20 08:25 34.562040 -118.873211 177 7472ft 133kts
10-Apr-20 08:27 34.528789 -118.874707 177 7471ft 133kts
10-Apr-20 08:28 34.500678 -118.875969 177 7470ft 133kts
10-Apr-20 08:28 34.477148 -118.877024 177 7469ft 133kts
10-Apr-20 08:30 34.443919 -118.878513 177 7468ft 133kts
10-Apr-20 08:30 34.420275 -118.879572 177 7455ft 135kts
10-Apr-20 08:31 34.390139 -118.880914 178 6992ft 145kts
10-Apr-20 08:32 34.359309 -118.883080 198 6373ft 149kts
10-Apr-20 08:34 34.334771 -118.915969 231 5662ft 145kts
10-Apr-20 08:34 34.317889 -118.939352 218 5150ft 144kts
10-Apr-20 08:35 34.290469 -118.959394 210 4461ft 143kts
10-Apr-20 08:36 34.262164 -118.977574 206 3551ft 149kts
10-Apr-20 08:37 34.233706 -118.996001 209 2628ft 140kts
10-Apr-20 08:38 34.212206 -119.014754 261 1886ft 99kts
10-Apr-20 08:40 34.212817 -119.042004 278 1285ft 75kts
10-Apr-20 08:40 34.213337 -119.058980 266 807ft 71kts
10-Apr-20 08:41 34.213560 -119.078004 274 258ft 64kts
10-Apr-20 08:42 34.212999 -119.090739 212 68ft 14kts
10-Apr-20 08:43 34.212804 -119.090868 203 68ft 0kts

Navigation Log

Ident Type
Flight plan parsing failed, navigation log unavailable